Terminal Aerodrome Forecast
Issued by NWS

Home | Current Version | Previous Version | Text Only | Print | Product List | Glossary Off
Versions: 1 2 3 4 5 6 7 8 9 10 11 12 13 14 15 16 17

000
FTUS43 KTOP 091700
TAFMHK
TAF
KMHK 091739Z 0918/1018 13005KT P6SM FEW070
     FM100700 13005KT P6SM VCTS BKN060CB
     FM101400 14009KT P6SM BKN080=

USA.gov is the U.S. government's official web portal to all federal, state and local government web resources and services.